createdAt,value
2019-06-20T00:00:57.185Z,99.99
2019-06-20T00:01:57.132Z,99.99
2019-06-20T00:02:57.172Z,99.99
2019-06-20T00:03:57.352Z,99.99
2019-06-20T00:06:57.329Z,99.99
2019-06-20T00:07:57.667Z,99.99
2019-06-20T00:08:57.639Z,99.99
2019-06-20T00:09:57.363Z,99.99
2019-06-20T00:10:57.257Z,99.99
2019-06-20T00:11:57.284Z,99.99
2019-06-20T00:13:00.681Z,99.99
2019-06-20T00:13:57.320Z,99.99
2019-06-20T00:14:57.370Z,99.99
2019-06-20T00:15:57.320Z,99.99
2019-06-20T00:16:59.507Z,99.99
2019-06-20T00:17:57.358Z,99.99
2019-06-20T00:18:57.397Z,99.99
2019-06-20T00:19:57.412Z,99.99
2019-06-20T00:20:57.397Z,99.99
2019-06-20T00:21:57.549Z,99.99
2019-06-20T00:22:57.561Z,99.99
2019-06-20T00:23:57.583Z,99.99
2019-06-20T00:24:57.749Z,99.99
2019-06-20T00:25:57.552Z,99.99
2019-06-20T00:26:57.509Z,99.99
2019-06-20T00:27:57.522Z,99.99
2019-06-20T00:28:57.528Z,99.99
2019-06-20T00:29:57.818Z,99.99
2019-06-20T00:30:57.554Z,99.99
2019-06-20T00:31:57.657Z,99.99
2019-06-20T00:32:57.588Z,99.99
2019-06-20T00:33:57.598Z,99.99
2019-06-20T00:34:57.657Z,99.99
2019-06-20T00:36:58.211Z,99.99
2019-06-20T00:38:57.959Z,99.99
2019-06-20T00:39:58.184Z,99.99
2019-06-20T00:40:57.785Z,99.99
2019-06-20T00:41:57.725Z,99.99
2019-06-20T00:42:57.771Z,99.99
2019-06-20T00:43:57.876Z,99.99
2019-06-20T00:44:57.775Z,99.99
2019-06-20T00:45:57.900Z,99.99
2019-06-20T00:46:57.844Z,99.99
2019-06-20T00:47:57.877Z,99.99
2019-06-20T00:48:57.842Z,99.99
2019-06-20T00:49:57.993Z,99.99
2019-06-20T00:50:57.870Z,99.99
2019-06-20T00:51:58.015Z,99.99
2019-06-20T00:52:57.947Z,99.99
2019-06-20T00:53:57.919Z,99.99
2019-06-20T00:54:57.932Z,99.99
2019-06-20T00:55:57.945Z,99.99
2019-06-20T00:56:58.023Z,99.99
2019-06-20T00:57:57.978Z,99.99
2019-06-20T00:58:57.988Z,99.99
2019-06-20T00:59:58.007Z,99.99
2019-06-20T01:00:58.021Z,99.99
2019-06-20T01:01:58.043Z,99.99
2019-06-20T01:02:58.059Z,99.99
2019-06-20T01:03:58.078Z,99.99
2019-06-20T01:04:58.088Z,99.99
2019-06-20T01:05:58.294Z,99.99
2019-06-20T01:06:58.155Z,99.99
2019-06-20T01:07:58.191Z,99.99
2019-06-20T01:08:58.378Z,99.99
2019-06-20T01:09:58.698Z,99.99
2019-06-20T01:11:58.350Z,99.99
2019-06-20T01:12:58.822Z,99.99
2019-06-20T01:13:58.328Z,99.99
2019-06-20T01:14:58.261Z,99.99
2019-06-20T01:15:58.293Z,99.99
2019-06-20T01:16:58.273Z,99.99
2019-06-20T01:17:58.286Z,99.99
2019-06-20T01:18:58.303Z,99.99
2019-06-20T01:20:58.347Z,99.99
2019-06-20T01:21:58.357Z,99.99
2019-06-20T01:22:58.365Z,99.99
2019-06-20T01:23:58.395Z,99.99
2019-06-20T01:24:58.402Z,99.99
2019-06-20T01:25:58.422Z,99.99
2019-06-20T01:26:58.431Z,99.99
2019-06-20T01:27:58.453Z,99.99
2019-06-20T01:28:58.496Z,99.99
2019-06-20T01:29:58.478Z,99.99
2019-06-20T01:30:58.501Z,99.99
2019-06-20T01:31:58.508Z,99.99
2019-06-20T01:32:58.523Z,99.99
2019-06-20T01:33:58.550Z,99.99
2019-06-20T01:34:58.615Z,99.99
2019-06-20T01:35:58.595Z,99.99
2019-06-20T01:36:58.611Z,99.99
2019-06-20T01:37:58.599Z,99.99
2019-06-20T01:38:58.612Z,99.99
2019-06-20T01:39:58.658Z,99.99
2019-06-20T01:40:58.764Z,99.99
2019-06-20T01:41:59.318Z,99.99
2019-06-20T01:44:58.890Z,99.99
2019-06-20T01:45:58.741Z,99.99
2019-06-20T01:46:58.744Z,99.99
2019-06-20T01:47:58.780Z,99.99
2019-06-20T01:48:58.797Z,99.99
2019-06-20T01:49:58.785Z,99.99
2019-06-20T01:50:58.809Z,99.99
2019-06-20T01:51:58.818Z,99.99
2019-06-20T01:52:58.854Z,99.99
2019-06-20T01:53:58.855Z,99.99
2019-06-20T01:54:58.869Z,99.99
2019-06-20T01:55:58.882Z,99.99
2019-06-20T01:56:58.895Z,99.99
2019-06-20T01:57:58.910Z,99.99
2019-06-20T01:58:58.970Z,99.99
2019-06-20T02:00:59.099Z,99.99
2019-06-20T02:01:58.995Z,99.99
2019-06-20T02:02:58.991Z,99.99
2019-06-20T02:03:59.044Z,99.99
2019-06-20T02:05:59.039Z,99.99
2019-06-20T02:06:59.052Z,99.99
2019-06-20T02:07:59.070Z,99.99
2019-06-20T02:08:59.135Z,99.99
2019-06-20T02:09:59.112Z,99.99
2019-06-20T02:10:59.249Z,99.99
2019-06-20T02:11:59.138Z,99.99
2019-06-20T02:12:59.145Z,99.99
2019-06-20T02:14:07.291Z,99.99
2019-06-20T02:14:59.252Z,99.99
2019-06-20T02:15:59.192Z,99.99
2019-06-20T02:16:59.249Z,99.99
2019-06-20T02:17:59.250Z,99.99
2019-06-20T02:18:59.495Z,99.99
2019-06-20T02:19:59.285Z,99.99
2019-06-20T02:20:59.384Z,99.99
2019-06-20T02:21:59.316Z,99.99
2019-06-20T02:22:59.310Z,99.99
2019-06-20T02:23:59.321Z,99.99
2019-06-20T02:24:59.338Z,99.99
2019-06-20T02:25:59.370Z,99.99
2019-06-20T02:26:59.365Z,99.99
2019-06-20T02:27:59.381Z,99.99
2019-06-20T02:28:59.653Z,99.99
2019-06-20T02:29:59.437Z,99.99
2019-06-20T02:30:59.439Z,99.99
2019-06-20T02:31:59.505Z,99.99
2019-06-20T02:32:59.676Z,99.99
2019-06-20T02:33:59.473Z,99.99
2019-06-20T02:35:59.503Z,99.99
2019-06-20T02:36:59.523Z,99.99
2019-06-20T02:37:59.570Z,99.99
2019-06-20T02:38:59.582Z,99.99
2019-06-20T02:39:59.569Z,99.99
2019-06-20T02:40:59.578Z,99.99
2019-06-20T02:41:59.666Z,99.99
2019-06-20T02:42:59.612Z,99.99
2019-06-20T02:43:59.635Z,99.99
2019-06-20T02:44:59.647Z,99.99
2019-06-20T02:45:59.703Z,99.99
2019-06-20T02:47:00.100Z,99.99
2019-06-20T02:48:00.370Z,99.99
2019-06-20T02:49:00.831Z,99.99
2019-06-20T02:50:00.425Z,99.99
2019-06-20T02:50:59.774Z,99.99
2019-06-20T02:51:59.802Z,99.99
2019-06-20T02:53:00.427Z,99.99
2019-06-20T02:54:00.132Z,99.99
2019-06-20T02:54:59.797Z,99.99
2019-06-20T02:55:59.822Z,99.99
2019-06-20T02:57:00.286Z,99.99
2019-06-20T02:57:59.851Z,99.99
2019-06-20T02:58:59.860Z,99.99
2019-06-20T02:59:59.872Z,99.99
2019-06-20T03:00:59.889Z,99.99
2019-06-20T03:01:59.950Z,99.99
2019-06-20T03:02:59.925Z,99.99
2019-06-20T03:03:59.982Z,99.99
2019-06-20T03:04:59.948Z,99.99
2019-06-20T03:05:59.966Z,99.99
2019-06-20T03:06:59.982Z,99.99
2019-06-20T03:08:00.499Z,99.99
2019-06-20T03:09:00.264Z,99.99
2019-06-20T03:10:00.043Z,99.99
2019-06-20T03:11:00.052Z,99.99
2019-06-20T03:12:00.106Z,99.99
2019-06-20T03:13:00.144Z,99.99
2019-06-20T03:14:00.090Z,99.99
2019-06-20T03:15:00.155Z,99.99
2019-06-20T03:16:00.122Z,99.99
2019-06-20T03:17:00.273Z,99.99
2019-06-20T03:19:01.114Z,99.99
2019-06-20T03:20:00.418Z,99.99
2019-06-20T03:21:00.861Z,99.99
2019-06-20T03:22:00.268Z,99.99
2019-06-20T03:24:00.292Z,99.99
2019-06-20T03:25:00.565Z,99.99
2019-06-20T03:26:00.321Z,99.99
2019-06-20T03:27:00.297Z,99.99
2019-06-20T03:28:00.420Z,99.99
2019-06-20T03:29:00.326Z,99.99
2019-06-20T03:31:00.362Z,99.99
2019-06-20T03:32:00.374Z,99.99
2019-06-20T03:33:00.393Z,99.99
2019-06-20T03:34:00.400Z,99.99
2019-06-20T03:35:00.445Z,99.99
2019-06-20T03:36:00.458Z,99.99
2019-06-20T03:37:00.449Z,99.99
2019-06-20T03:38:00.465Z,99.99
2019-06-20T03:39:00.539Z,99.99
2019-06-20T03:40:00.542Z,99.99
2019-06-20T03:41:00.648Z,99.99
2019-06-20T03:42:00.533Z,99.99
2019-06-20T03:43:00.561Z,99.99
2019-06-20T03:44:00.553Z,99.99
2019-06-20T03:45:02.488Z,99.99
2019-06-20T03:46:00.621Z,99.99
2019-06-20T03:47:00.754Z,99.99
2019-06-20T03:49:01.507Z,99.99
2019-06-20T03:50:00.812Z,99.99
2019-06-20T03:51:00.662Z,99.99
2019-06-20T03:52:00.737Z,99.99
2019-06-20T03:54:00.739Z,99.99
2019-06-20T03:55:00.901Z,99.99
2019-06-20T03:56:01.540Z,99.99
2019-06-20T03:58:00.882Z,99.99
2019-06-20T03:59:00.789Z,99.99
2019-06-20T04:00:01.039Z,99.99
2019-06-20T04:01:00.856Z,99.99
2019-06-20T04:02:01.034Z,99.99
2019-06-20T04:03:01.626Z,99.99
2019-06-20T04:04:00.869Z,99.99
2019-06-20T04:05:01.252Z,99.99
2019-06-20T04:06:00.922Z,99.99
2019-06-20T04:07:00.919Z,99.99
2019-06-20T04:08:00.928Z,99.99
2019-06-20T04:09:00.952Z,99.99
2019-06-20T04:10:01.176Z,99.99
2019-06-20T04:11:00.979Z,99.99
2019-06-20T04:12:01.043Z,99.99
2019-06-20T04:13:01.003Z,99.99
2019-06-20T04:14:02.009Z,99.99
2019-06-20T04:15:01.037Z,99.99
2019-06-20T04:16:01.070Z,99.99
2019-06-20T04:17:01.437Z,99.99
2019-06-20T04:18:01.169Z,99.99
2019-06-20T04:19:02.033Z,99.99
2019-06-20T04:21:01.126Z,99.99
2019-06-20T04:24:01.887Z,99.99
2019-06-20T04:25:01.395Z,99.99
2019-06-20T04:26:01.926Z,99.99
2019-06-20T04:27:01.229Z,99.99
2019-06-20T04:28:01.443Z,99.99
2019-06-20T04:29:01.368Z,99.99
2019-06-20T04:30:01.414Z,99.99
2019-06-20T04:31:01.357Z,99.99
2019-06-20T04:32:01.376Z,99.99
2019-06-20T04:33:01.507Z,99.99
2019-06-20T04:34:01.359Z,99.99
2019-06-20T04:35:01.350Z,99.99
2019-06-20T04:36:01.578Z,99.99
2019-06-20T04:37:01.403Z,99.99
2019-06-20T04:38:01.413Z,99.99
2019-06-20T04:39:01.591Z,99.99
2019-06-20T04:40:01.873Z,99.99
2019-06-20T04:41:01.437Z,99.99
2019-06-20T04:43:01.526Z,99.99
2019-06-20T04:44:01.574Z,99.99
2019-06-20T04:45:01.500Z,99.99
2019-06-20T04:46:01.508Z,99.99
2019-06-20T04:47:01.574Z,99.99
2019-06-20T04:48:01.546Z,99.99
2019-06-20T04:49:01.558Z,99.99
2019-06-20T04:50:01.607Z,99.99
2019-06-20T04:51:01.594Z,99.99
2019-06-20T04:52:01.658Z,99.99
2019-06-20T04:53:01.670Z,99.99
2019-06-20T04:54:01.645Z,99.99
2019-06-20T04:55:02.211Z,99.99
2019-06-20T04:56:05.408Z,99.99
2019-06-20T04:58:01.752Z,99.99
2019-06-20T04:59:01.844Z,99.99
2019-06-20T05:00:01.775Z,99.99
2019-06-20T05:03:02.222Z,99.99
2019-06-20T05:04:01.794Z,99.99
2019-06-20T05:05:01.810Z,99.99
2019-06-20T05:07:01.864Z,99.99
2019-06-20T05:08:01.899Z,99.99
2019-06-20T05:09:02.971Z,99.99
2019-06-20T05:10:02.090Z,99.99
2019-06-20T05:11:02.028Z,99.99
2019-06-20T05:12:02.081Z,99.99
2019-06-20T05:13:01.939Z,99.99
2019-06-20T05:14:03.033Z,99.99
2019-06-20T05:15:01.966Z,99.99
2019-06-20T05:17:02.007Z,99.99
2019-06-20T05:18:02.015Z,99.99
2019-06-20T05:19:03.923Z,99.99
2019-06-20T05:20:02.387Z,99.99
2019-06-20T05:21:02.134Z,99.99
2019-06-20T05:23:02.383Z,99.99
2019-06-20T05:24:03.582Z,99.99
2019-06-20T05:25:02.186Z,99.99
2019-06-20T05:26:03.029Z,99.99
2019-06-20T05:27:03.305Z,99.99
2019-06-20T05:29:05.332Z,99.99
2019-06-20T05:30:02.965Z,99.99
2019-06-20T05:33:02.253Z,99.99
2019-06-20T05:36:02.854Z,99.99
2019-06-20T05:37:02.354Z,99.99
2019-06-20T05:38:02.415Z,99.99
2019-06-20T05:39:02.338Z,99.99
2019-06-20T05:40:06.160Z,99.99
2019-06-20T05:42:04.049Z,99.99
2019-06-20T05:44:02.831Z,99.99
2019-06-20T05:45:06.994Z,99.99
2019-06-20T05:46:09.510Z,99.99
2019-06-20T05:47:12.420Z,99.99
2019-06-20T05:48:02.476Z,99.99
2019-06-20T05:49:02.875Z,99.99
2019-06-20T05:50:03.842Z,99.99
2019-06-20T05:51:04.699Z,99.99
2019-06-20T05:52:04.556Z,99.99
2019-06-20T05:53:02.726Z,99.99
2019-06-20T05:56:03.555Z,99.99
2019-06-20T05:58:03.781Z,99.99
2019-06-20T05:59:03.570Z,99.99
2019-06-20T06:01:03.179Z,99.99
2019-06-20T06:02:04.678Z,99.99
2019-06-20T06:04:03.179Z,99.99
2019-06-20T06:05:03.805Z,99.99
2019-06-20T06:06:03.281Z,99.99
2019-06-20T06:07:05.176Z,99.99
2019-06-20T06:08:04.242Z,99.99
2019-06-20T06:09:03.797Z,99.99
2019-06-20T06:10:05.390Z,99.99
2019-06-20T06:11:03.293Z,99.99
2019-06-20T06:12:03.096Z,99.99
2019-06-20T06:14:05.529Z,99.99
2019-06-20T06:15:06.417Z,99.99
2019-06-20T06:16:03.099Z,99.99
2019-06-20T06:17:04.783Z,99.99
2019-06-20T06:18:03.965Z,99.99
2019-06-20T06:19:03.104Z,99.99
2019-06-20T06:20:03.563Z,99.99
2019-06-20T06:21:03.181Z,99.99
2019-06-20T06:22:03.201Z,99.99
2019-06-20T06:23:04.120Z,99.99
2019-06-20T06:24:03.604Z,99.99
2019-06-20T06:25:05.005Z,99.99
2019-06-20T06:26:03.879Z,99.99
2019-06-20T06:27:03.799Z,99.99
2019-06-20T06:28:04.193Z,99.99
2019-06-20T06:29:04.288Z,99.99
2019-06-20T06:30:06.306Z,99.99
2019-06-20T06:32:03.952Z,99.99
2019-06-20T06:34:04.215Z,99.99
2019-06-20T06:35:05.727Z,99.99
2019-06-20T06:37:03.267Z,99.99
2019-06-20T06:38:03.256Z,99.99
2019-06-20T06:39:03.760Z,99.99
2019-06-20T06:40:06.247Z,99.99
2019-06-20T06:41:04.129Z,99.99
2019-06-20T06:42:04.093Z,99.99
2019-06-20T06:43:05.378Z,99.99
2019-06-20T06:44:04.483Z,99.99
2019-06-20T06:45:06.059Z,99.99
2019-06-20T06:46:04.055Z,99.99
2019-06-20T06:47:03.830Z,99.99
2019-06-20T06:48:04.329Z,99.99
2019-06-20T06:49:03.795Z,99.99
2019-06-20T06:50:05.550Z,99.99
2019-06-20T06:51:04.935Z,99.99
2019-06-20T06:52:04.664Z,99.99
2019-06-20T06:53:04.830Z,99.99
2019-06-20T06:54:04.287Z,99.99
2019-06-20T06:55:05.168Z,99.99
2019-06-20T06:56:05.294Z,99.99
2019-06-20T06:57:05.260Z,99.99
2019-06-20T06:58:04.494Z,99.99
2019-06-20T06:59:03.616Z,99.99
2019-06-20T07:00:04.089Z,99.99
2019-06-20T07:01:10.208Z,99.99
2019-06-20T07:02:04.337Z,99.99
2019-06-20T07:03:04.848Z,99.99
2019-06-20T07:04:05.561Z,99.99
2019-06-20T07:06:06.911Z,99.99
2019-06-20T07:07:05.125Z,99.99
2019-06-20T07:08:08.213Z,99.99
2019-06-20T07:09:08.235Z,99.99
2019-06-20T07:11:08.117Z,99.99
2019-06-20T07:12:07.243Z,99.99
2019-06-20T07:16:03.844Z,99.99
2019-06-20T07:17:03.864Z,99.99
2019-06-20T07:18:03.879Z,99.99
2019-06-20T07:20:03.896Z,99.99
2019-06-20T07:21:03.978Z,99.99
2019-06-20T07:22:07.401Z,99.99
2019-06-20T07:23:05.218Z,99.99
2019-06-20T07:24:03.967Z,99.99
2019-06-20T07:25:03.967Z,99.99
2019-06-20T07:26:04.825Z,99.99
2019-06-20T07:27:04.645Z,99.99
2019-06-20T07:28:04.808Z,99.99
2019-06-20T07:29:04.054Z,99.99
2019-06-20T07:30:04.042Z,99.99
2019-06-20T07:31:04.275Z,99.99
2019-06-20T07:32:04.242Z,99.99
2019-06-20T07:33:04.298Z,99.99
2019-06-20T07:34:08.223Z,99.99
2019-06-20T07:35:05.973Z,99.99
2019-06-20T07:36:04.541Z,99.99
2019-06-20T07:37:04.576Z,99.99
2019-06-20T07:38:04.236Z,99.99
2019-06-20T07:42:04.372Z,99.99
2019-06-20T07:43:04.257Z,99.99
2019-06-20T07:44:04.264Z,99.99
2019-06-20T07:45:04.290Z,99.99
2019-06-20T07:46:05.995Z,99.99
2019-06-20T07:47:17.189Z,99.99
2019-06-20T07:50:18.277Z,99.99
2019-06-20T07:51:09.053Z,99.59
2019-06-20T07:52:08.374Z,99.21
2019-06-20T07:53:10.077Z,99.30
2019-06-20T07:54:09.430Z,99.30
2019-06-20T07:55:04.480Z,99.21
2019-06-20T07:56:11.842Z,99.21
2019-06-20T07:57:09.284Z,98.24
2019-06-20T07:59:04.503Z,97.86
2019-06-20T08:00:04.528Z,96.70
2019-06-20T08:01:04.557Z,96.99
2019-06-20T08:02:04.572Z,96.42
2019-06-20T08:03:04.578Z,97.38
2019-06-20T08:04:04.596Z,96.89
2019-06-20T08:05:04.586Z,97.38
2019-06-20T08:06:04.737Z,97.38
2019-06-20T08:07:04.731Z,97.47
2019-06-20T08:09:05.122Z,97.72
2019-06-20T08:10:05.180Z,96.75
2019-06-20T08:11:05.148Z,95.02
2019-06-20T08:12:04.719Z,95.31
2019-06-20T08:13:04.715Z,95.02
2019-06-20T08:14:05.679Z,95.21
2019-06-20T08:15:14.468Z,95.26
2019-06-20T08:16:04.792Z,95.64
2019-06-20T08:17:04.860Z,96.42
2019-06-20T08:18:04.806Z,98.24
2019-06-20T08:19:04.831Z,99.21
2019-06-20T08:20:04.853Z,99.54
2019-06-20T08:21:04.914Z,99.99
2019-06-20T08:22:04.856Z,99.99
2019-06-20T08:23:04.900Z,99.99
2019-06-20T08:24:04.890Z,99.99
2019-06-20T08:25:05.382Z,99.99
2019-06-20T08:26:04.918Z,99.99
2019-06-20T08:27:05.031Z,99.99
2019-06-20T08:28:04.960Z,99.99
2019-06-20T08:29:18.583Z,99.99
2019-06-20T08:30:05.225Z,99.99
2019-06-20T08:31:04.996Z,99.99
2019-06-20T08:32:05.011Z,99.99
2019-06-20T08:33:11.737Z,99.99
2019-06-20T08:34:05.044Z,99.99
2019-06-20T08:35:06.433Z,99.99
2019-06-20T08:36:06.552Z,99.99
2019-06-20T08:37:06.386Z,99.99
2019-06-20T08:38:05.686Z,99.99
2019-06-20T08:39:06.489Z,99.99
2019-06-20T08:40:06.490Z,99.99
2019-06-20T08:41:06.398Z,99.99
2019-06-20T08:42:06.370Z,99.99
2019-06-20T08:43:06.268Z,99.99
2019-06-20T08:44:06.140Z,99.99
2019-06-20T08:45:06.109Z,99.99
2019-06-20T08:47:05.947Z,99.99
2019-06-20T08:48:05.267Z,99.30
2019-06-20T08:49:05.779Z,97.62
2019-06-20T08:50:06.085Z,97.24
2019-06-20T08:51:06.475Z,97.62
2019-06-20T08:52:05.603Z,97.52
2019-06-20T08:53:05.884Z,96.37
2019-06-20T08:54:05.507Z,96.41
2019-06-20T08:55:05.769Z,96.12
2019-06-20T08:56:05.570Z,94.58
2019-06-20T08:57:05.864Z,94.78
2019-06-20T08:58:05.723Z,95.26
2019-06-20T08:59:05.455Z,95.16
2019-06-20T09:03:05.495Z,92.50
2019-06-20T09:04:05.511Z,92.32
2019-06-20T09:05:05.534Z,91.49
2019-06-20T09:06:05.666Z,90.67
2019-06-20T09:07:05.578Z,90.09
2019-06-20T09:08:05.572Z,88.73
2019-06-20T09:09:05.606Z,86.71
2019-06-20T09:10:05.756Z,87.34
2019-06-20T09:11:05.634Z,88.79
2019-06-20T09:12:06.454Z,89.56
2019-06-20T09:13:05.653Z,87.73
2019-06-20T09:14:06.155Z,87.53
2019-06-20T09:15:06.689Z,87.24
2019-06-20T09:16:05.833Z,87.63
2019-06-20T09:17:06.674Z,87.73
2019-06-20T09:21:05.897Z,90.72
2019-06-20T09:22:06.711Z,90.09
2019-06-20T09:23:06.643Z,90.96
2019-06-20T09:24:06.873Z,91.35
2019-06-20T09:25:06.011Z,91.35
2019-06-20T09:26:05.870Z,91.64
2019-06-20T09:27:05.881Z,92.22
2019-06-20T09:28:05.893Z,92.02
2019-06-20T09:29:05.917Z,91.68
2019-06-20T09:30:05.940Z,90.43
2019-06-20T09:31:05.984Z,90.62
2019-06-20T09:32:05.957Z,88.25
2019-06-20T09:33:06.845Z,86.71
2019-06-20T09:34:06.069Z,86.90
2019-06-20T09:35:06.109Z,87.29
2019-06-20T09:36:06.106Z,87.82
2019-06-20T09:37:06.038Z,88.11
2019-06-20T09:38:06.318Z,87.73
2019-06-20T09:39:06.626Z,87.58
2019-06-20T09:40:06.091Z,87.29
2019-06-20T09:41:06.127Z,88.25
2019-06-20T09:42:06.146Z,87.19
2019-06-20T09:43:06.182Z,86.66
2019-06-20T09:44:06.183Z,87.82
2019-06-20T09:45:06.288Z,87.15
2019-06-20T09:46:06.231Z,87.53
2019-06-20T09:47:06.327Z,87.53
2019-06-20T09:50:07.082Z,88.25
2019-06-20T09:51:06.269Z,88.01
2019-06-20T09:52:06.641Z,87.04
2019-06-20T09:53:06.798Z,88.49
2019-06-20T09:54:06.445Z,87.13
2019-06-20T09:55:06.592Z,86.56
2019-06-20T09:56:06.767Z,86.27
2019-06-20T09:57:06.379Z,85.98
2019-06-20T09:58:06.416Z,87.13
2019-06-20T09:59:06.707Z,87.77
2019-06-20T10:00:10.414Z,88.73
2019-06-20T10:01:06.866Z,86.80
2019-06-20T10:02:06.470Z,87.19
2019-06-20T10:03:06.476Z,86.27
2019-06-20T10:04:06.484Z,83.66
2019-06-20T10:05:06.510Z,84.05
2019-06-20T10:06:13.922Z,83.18
2019-06-20T10:07:06.539Z,83.95
2019-06-20T10:08:06.548Z,82.26
2019-06-20T10:09:06.573Z,82.36
2019-06-20T10:10:06.583Z,84.30
2019-06-20T10:11:06.595Z,84.20
2019-06-20T10:12:06.613Z,83.04
2019-06-20T10:13:06.635Z,83.14
2019-06-20T10:14:06.689Z,84.14
2019-06-20T10:15:06.677Z,84.53
2019-06-20T10:16:06.683Z,83.27
2019-06-20T10:17:06.702Z,83.75
2019-06-20T10:18:06.706Z,84.24
2019-06-20T10:19:06.733Z,84.05
2019-06-20T10:20:06.748Z,83.70
2019-06-20T10:21:06.772Z,81.73
2019-06-20T10:22:06.786Z,80.03
2019-06-20T10:23:06.798Z,81.15
2019-06-20T10:24:06.865Z,80.28
2019-06-20T10:25:06.840Z,80.66
2019-06-20T10:26:07.194Z,80.18
2019-06-20T10:27:06.877Z,80.08
2019-06-20T10:28:06.912Z,80.80
2019-06-20T10:29:06.891Z,80.90
2019-06-20T10:30:14.366Z,79.06
2019-06-20T10:31:06.946Z,79.22
2019-06-20T10:32:06.943Z,79.70
2019-06-20T10:33:06.957Z,79.80
2019-06-20T10:34:06.986Z,79.08
2019-06-20T10:35:06.999Z,80.38
2019-06-20T10:36:07.045Z,79.89
2019-06-20T10:37:07.725Z,78.73
2019-06-20T10:38:07.078Z,78.87
2019-06-20T10:39:07.062Z,78.83
2019-06-20T10:40:07.124Z,77.13
2019-06-20T10:41:07.090Z,77.03
2019-06-20T10:42:07.120Z,76.93
2019-06-20T10:43:07.127Z,76.87
2019-06-20T10:44:07.144Z,76.49
2019-06-20T10:45:07.221Z,77.26
2019-06-20T10:46:07.168Z,77.65
2019-06-20T10:47:07.183Z,76.87
2019-06-20T10:48:07.210Z,76.87
2019-06-20T10:49:07.308Z,76.64
2019-06-20T10:50:07.249Z,76.49
2019-06-20T10:51:07.262Z,76.97
2019-06-20T10:52:07.467Z,75.97
2019-06-20T10:53:07.458Z,76.35
2019-06-20T10:54:07.296Z,77.26
2019-06-20T10:55:07.345Z,78.03
2019-06-20T10:56:07.336Z,77.98
2019-06-20T10:57:07.370Z,77.69
2019-06-20T10:58:07.424Z,76.72
2019-06-20T10:59:07.394Z,76.04
2019-06-20T11:00:08.231Z,76.04
2019-06-20T11:01:07.472Z,75.17
2019-06-20T11:02:07.530Z,74.59
2019-06-20T11:04:07.489Z,73.27
2019-06-20T11:05:07.515Z,73.18
2019-06-20T11:06:07.514Z,72.75
2019-06-20T11:07:07.617Z,73.14
2019-06-20T11:08:07.535Z,74.21
2019-06-20T11:09:07.589Z,72.95
2019-06-20T11:10:07.615Z,73.18
2019-06-20T11:11:07.597Z,74.34
2019-06-20T11:12:07.637Z,73.11
2019-06-20T11:13:07.617Z,74.57
2019-06-20T11:14:07.635Z,70.98
2019-06-20T11:15:07.759Z,73.15
2019-06-20T11:16:07.782Z,72.83
2019-06-20T11:17:07.915Z,74.76
2019-06-20T11:18:08.303Z,71.86
2019-06-20T11:19:07.718Z,73.11
2019-06-20T11:20:07.741Z,73.11
2019-06-20T11:21:07.801Z,73.50
2019-06-20T11:22:07.852Z,74.28
2019-06-20T11:23:07.789Z,73.21
2019-06-20T11:24:07.821Z,73.05
2019-06-20T11:25:07.886Z,72.96
2019-06-20T11:26:07.845Z,73.41
2019-06-20T11:27:07.947Z,70.31
2019-06-20T11:29:08.992Z,70.21
2019-06-20T11:30:10.947Z,70.31
2019-06-20T11:31:07.957Z,69.27
2019-06-20T11:32:07.953Z,69.27
2019-06-20T11:33:07.984Z,67.82
2019-06-20T11:34:08.056Z,67.44
2019-06-20T11:35:08.010Z,67.72
2019-06-20T11:36:08.054Z,69.02
2019-06-20T11:37:08.276Z,67.82
2019-06-20T11:38:08.108Z,67.63
2019-06-20T11:39:08.071Z,68.50
2019-06-20T11:40:08.158Z,69.34
2019-06-20T11:41:08.130Z,69.43
2019-06-20T11:42:08.251Z,69.40
2019-06-20T11:43:08.216Z,69.89
2019-06-20T11:44:08.321Z,69.24
2019-06-20T11:45:08.216Z,69.82
2019-06-20T11:46:08.196Z,67.50
2019-06-20T11:47:08.218Z,68.85
2019-06-20T11:48:08.554Z,68.05
2019-06-20T11:49:08.247Z,68.53
2019-06-20T11:51:08.341Z,67.85
2019-06-20T11:53:08.340Z,68.49
2019-06-20T11:54:08.470Z,68.69
2019-06-20T11:55:08.612Z,69.17
2019-06-20T11:56:08.441Z,69.37
2019-06-20T11:57:08.392Z,70.24
2019-06-20T11:58:09.117Z,69.89
2019-06-20T11:59:08.439Z,69.79
2019-06-20T12:00:08.846Z,69.46
2019-06-20T12:01:08.460Z,69.89
2019-06-20T12:02:08.746Z,70.37
2019-06-20T12:03:08.506Z,71.04
2019-06-20T12:04:09.481Z,69.98
2019-06-20T12:05:08.952Z,68.33
2019-06-20T12:06:08.557Z,69.21
2019-06-20T12:07:08.579Z,68.37
2019-06-20T12:08:08.620Z,68.47
2019-06-20T12:09:08.611Z,69.05
2019-06-20T12:10:09.620Z,68.82
2019-06-20T12:11:08.647Z,69.50
2019-06-20T12:12:10.095Z,69.31
2019-06-20T12:13:08.677Z,69.98
2019-06-20T12:14:08.803Z,69.69
2019-06-20T12:15:08.710Z,69.50
2019-06-20T12:16:08.716Z,69.24
2019-06-20T12:17:08.726Z,69.24
2019-06-20T12:18:08.752Z,67.24
2019-06-20T12:19:08.763Z,67.53
2019-06-20T12:20:09.830Z,68.40
2019-06-20T12:21:08.802Z,67.44
2019-06-20T12:22:08.815Z,67.95
2019-06-20T12:23:08.838Z,68.49
2019-06-20T12:24:08.908Z,69.75
2019-06-20T12:25:08.870Z,71.34
2019-06-20T12:26:08.880Z,72.02
2019-06-20T12:27:08.954Z,72.40
2019-06-20T12:28:09.101Z,70.56
2019-06-20T12:29:08.939Z,71.76
2019-06-20T12:30:08.974Z,69.31
2019-06-20T12:31:18.905Z,69.75
2019-06-20T12:32:10.050Z,71.08
2019-06-20T12:33:09.034Z,73.72
2019-06-20T12:34:09.026Z,73.14
2019-06-20T12:35:09.043Z,71.88
2019-06-20T12:36:09.064Z,71.01
2019-06-20T12:37:09.481Z,70.56
2019-06-20T12:38:09.707Z,69.50
2019-06-20T12:39:09.176Z,69.50
2019-06-20T12:40:09.167Z,70.60
2019-06-20T12:42:09.164Z,67.72
2019-06-20T12:43:09.296Z,67.69
2019-06-20T12:44:09.256Z,68.47
2019-06-20T12:45:09.666Z,68.66
2019-06-20T12:46:09.283Z,69.31
2019-06-20T12:47:09.255Z,69.69
2019-06-20T12:48:09.283Z,69.98
2019-06-20T12:49:09.286Z,69.82
2019-06-20T12:50:09.331Z,68.76
2019-06-20T12:51:09.325Z,70.21
2019-06-20T12:52:09.339Z,69.89
2019-06-20T12:53:09.367Z,70.43
2019-06-20T12:55:09.400Z,72.14
2019-06-20T12:56:09.485Z,73.24
2019-06-20T12:57:09.430Z,73.10
2019-06-20T12:58:09.596Z,72.17
2019-06-20T13:00:09.817Z,72.08
2019-06-20T13:01:09.515Z,71.44
2019-06-20T13:02:09.524Z,70.37
2019-06-20T13:03:09.668Z,70.92
2019-06-20T13:04:09.572Z,71.40
2019-06-20T13:05:09.579Z,71.69
2019-06-20T13:06:09.608Z,71.59
2019-06-20T13:07:09.699Z,72.95
2019-06-20T13:08:09.664Z,72.98
2019-06-20T13:09:09.640Z,71.44
2019-06-20T13:10:09.662Z,71.82
2019-06-20T13:11:09.771Z,70.79
2019-06-20T13:12:09.757Z,72.15
2019-06-20T13:13:09.972Z,68.92
2019-06-20T13:14:10.235Z,68.05
2019-06-20T13:15:09.792Z,67.34
2019-06-20T13:16:09.763Z,68.30
2019-06-20T13:17:09.916Z,68.08
2019-06-20T13:18:09.903Z,68.73
2019-06-20T13:19:09.876Z,69.40
2019-06-20T13:20:10.045Z,70.37
2019-06-20T13:21:09.916Z,69.89
2019-06-20T13:23:09.899Z,71.01
2019-06-20T13:24:09.915Z,73.30
2019-06-20T13:25:09.945Z,73.59
2019-06-20T13:26:09.945Z,71.75
2019-06-20T13:27:10.018Z,71.46
2019-06-20T13:28:09.987Z,71.26
2019-06-20T13:29:09.991Z,72.04
2019-06-20T13:30:10.039Z,72.30
2019-06-20T13:31:10.046Z,72.33
2019-06-20T13:32:10.345Z,72.14
2019-06-20T13:34:10.113Z,71.94
2019-06-20T13:35:10.123Z,73.01
2019-06-20T13:36:10.123Z,71.94
2019-06-20T13:37:10.177Z,72.24
2019-06-20T13:38:10.157Z,73.36
2019-06-20T13:39:10.165Z,72.58
2019-06-20T13:40:10.189Z,73.07
2019-06-20T13:41:10.204Z,74.48
2019-06-20T13:42:10.213Z,73.22
2019-06-20T13:43:10.408Z,73.22
2019-06-20T13:44:10.398Z,74.48
2019-06-20T13:45:13.225Z,74.29
2019-06-20T13:46:10.269Z,74.29
2019-06-20T13:47:10.294Z,74.48
2019-06-20T13:48:10.791Z,73.80
2019-06-20T13:49:10.351Z,73.90
2019-06-20T13:50:10.426Z,73.42
2019-06-20T13:51:10.528Z,73.26
2019-06-20T13:52:10.372Z,73.52
2019-06-20T13:53:10.458Z,74.10
2019-06-20T13:54:11.086Z,75.58
2019-06-20T13:56:10.437Z,71.14
2019-06-20T13:57:10.691Z,68.76
2019-06-20T13:58:10.532Z,69.21
2019-06-20T13:59:10.536Z,69.27
2019-06-20T14:00:10.602Z,69.66
2019-06-20T14:01:10.544Z,69.95
2019-06-20T14:02:10.575Z,70.68
2019-06-20T14:03:10.675Z,71.26
2019-06-20T14:04:10.572Z,70.94
2019-06-20T14:06:10.647Z,72.55
2019-06-20T14:07:10.675Z,72.94
2019-06-20T14:08:10.688Z,73.71
2019-06-20T14:09:10.905Z,74.19